sensor_id;sensor_type;location;lat;lon;timestamp;temperature;humidity
69895;DHT22;57172;52.034;5.090;2024-01-16T00:01:42;0.80;90.30
69895;DHT22;57172;52.034;5.090;2024-01-16T00:04:10;0.80;90.20
69895;DHT22;57172;52.034;5.090;2024-01-16T00:06:41;0.80;90.10
69895;DHT22;57172;52.034;5.090;2024-01-16T00:09:11;0.80;90.10
69895;DHT22;57172;52.034;5.090;2024-01-16T00:11:41;0.70;90.20
69895;DHT22;57172;52.034;5.090;2024-01-16T00:14:09;0.70;90.30
69895;DHT22;57172;52.034;5.090;2024-01-16T00:16:44;0.70;90.30
69895;DHT22;57172;52.034;5.090;2024-01-16T00:19:11;0.70;90.20
69895;DHT22;57172;52.034;5.090;2024-01-16T00:21:43;0.70;90.30
69895;DHT22;57172;52.034;5.090;2024-01-16T00:24:15;0.70;90.50
69895;DHT22;57172;52.034;5.090;2024-01-16T00:26:42;0.70;90.60
69895;DHT22;57172;52.034;5.090;2024-01-16T00:29:09;0.70;90.70
69895;DHT22;57172;52.034;5.090;2024-01-16T00:31:39;0.70;90.70
69895;DHT22;57172;52.034;5.090;2024-01-16T00:34:06;0.70;90.50
69895;DHT22;57172;52.034;5.090;2024-01-16T00:36:33;0.70;90.30
69895;DHT22;57172;52.034;5.090;2024-01-16T00:39:00;0.70;90.30
69895;DHT22;57172;52.034;5.090;2024-01-16T00:41:26;0.70;90.40
69895;DHT22;57172;52.034;5.090;2024-01-16T00:43:54;0.80;90.60
69895;DHT22;57172;52.034;5.090;2024-01-16T00:46:20;0.80;90.70
69895;DHT22;57172;52.034;5.090;2024-01-16T00:48:47;0.80;90.80
69895;DHT22;57172;52.034;5.090;2024-01-16T00:51:15;0.90;90.80
69895;DHT22;57172;52.034;5.090;2024-01-16T00:53:42;0.90;90.80
69895;DHT22;57172;52.034;5.090;2024-01-16T00:56:10;0.90;90.80
69895;DHT22;57172;52.034;5.090;2024-01-16T00:58:37;0.90;90.70
69895;DHT22;57172;52.034;5.090;2024-01-16T01:01:04;0.90;90.60
69895;DHT22;57172;52.034;5.090;2024-01-16T01:03:31;0.90;90.60
69895;DHT22;57172;52.034;5.090;2024-01-16T01:06:00;0.90;90.70
69895;DHT22;57172;52.034;5.090;2024-01-16T01:08:27;0.90;90.60
69895;DHT22;57172;52.034;5.090;2024-01-16T01:10:55;0.90;90.50
69895;DHT22;57172;52.034;5.090;2024-01-16T01:13:22;1.00;90.50
69895;DHT22;57172;52.034;5.090;2024-01-16T01:15:49;1.00;90.50
69895;DHT22;57172;52.034;5.090;2024-01-16T01:18:16;1.00;90.50
69895;DHT22;57172;52.034;5.090;2024-01-16T01:20:43;1.00;90.60
69895;DHT22;57172;52.034;5.090;2024-01-16T01:23:10;1.00;90.70
69895;DHT22;57172;52.034;5.090;2024-01-16T01:25:37;1.00;90.80
69895;DHT22;57172;52.034;5.090;2024-01-16T01:28:05;1.10;90.80
69895;DHT22;57172;52.034;5.090;2024-01-16T01:30:32;1.10;90.80
69895;DHT22;57172;52.034;5.090;2024-01-16T01:32:59;1.10;90.80
69895;DHT22;57172;52.034;5.090;2024-01-16T01:35:26;1.10;90.70
69895;DHT22;57172;52.034;5.090;2024-01-16T01:37:54;1.10;90.50
69895;DHT22;57172;52.034;5.090;2024-01-16T01:40:21;1.10;90.50
69895;DHT22;57172;52.034;5.090;2024-01-16T01:42:48;1.10;90.40
69895;DHT22;57172;52.034;5.090;2024-01-16T01:45:15;1.10;90.40
69895;DHT22;57172;52.034;5.090;2024-01-16T01:47:42;1.10;90.40
69895;DHT22;57172;52.034;5.090;2024-01-16T01:50:10;1.20;90.50
69895;DHT22;57172;52.034;5.090;2024-01-16T01:52:39;1.20;90.60
69895;DHT22;57172;52.034;5.090;2024-01-16T01:55:11;1.20;90.50
69895;DHT22;57172;52.034;5.090;2024-01-16T01:57:39;1.30;90.60
69895;DHT22;57172;52.034;5.090;2024-01-16T02:00:06;1.30;90.70
69895;DHT22;57172;52.034;5.090;2024-01-16T02:02:43;1.30;90.80
69895;DHT22;57172;52.034;5.090;2024-01-16T02:05:10;1.30;90.90
69895;DHT22;57172;52.034;5.090;2024-01-16T02:07:38;1.40;90.80
69895;DHT22;57172;52.034;5.090;2024-01-16T02:10:05;1.30;90.80
69895;DHT22;57172;52.034;5.090;2024-01-16T02:12:33;1.30;90.80
69895;DHT22;57172;52.034;5.090;2024-01-16T02:15:00;1.30;90.80
69895;DHT22;57172;52.034;5.090;2024-01-16T02:17:26;1.20;91.00
69895;DHT22;57172;52.034;5.090;2024-01-16T02:19:53;1.20;91.00
69895;DHT22;57172;52.034;5.090;2024-01-16T02:22:24;1.20;91.00
69895;DHT22;57172;52.034;5.090;2024-01-16T02:24:52;1.20;91.20
69895;DHT22;57172;52.034;5.090;2024-01-16T02:27:22;1.20;91.10
69895;DHT22;57172;52.034;5.090;2024-01-16T02:29:50;1.20;91.00
69895;DHT22;57172;52.034;5.090;2024-01-16T02:32:17;1.20;90.70
69895;DHT22;57172;52.034;5.090;2024-01-16T02:34:44;1.10;90.70
69895;DHT22;57172;52.034;5.090;2024-01-16T02:37:11;1.10;90.80
69895;DHT22;57172;52.034;5.090;2024-01-16T02:39:38;1.10;90.70
69895;DHT22;57172;52.034;5.090;2024-01-16T02:42:05;1.10;90.80
69895;DHT22;57172;52.034;5.090;2024-01-16T02:44:32;1.00;90.80
69895;DHT22;57172;52.034;5.090;2024-01-16T02:46:59;1.00;90.80
69895;DHT22;57172;52.034;5.090;2024-01-16T02:49:27;1.00;90.90
69895;DHT22;57172;52.034;5.090;2024-01-16T02:51:54;1.00;91.00
69895;DHT22;57172;52.034;5.090;2024-01-16T02:54:22;1.00;91.20
69895;DHT22;57172;52.034;5.090;2024-01-16T02:56:49;1.00;91.20
69895;DHT22;57172;52.034;5.090;2024-01-16T02:59:16;1.00;91.30
69895;DHT22;57172;52.034;5.090;2024-01-16T03:01:44;1.00;91.40
69895;DHT22;57172;52.034;5.090;2024-01-16T03:04:10;1.00;91.40
69895;DHT22;57172;52.034;5.090;2024-01-16T03:06:38;1.00;91.40
69895;DHT22;57172;52.034;5.090;2024-01-16T03:09:05;1.00;91.50
69895;DHT22;57172;52.034;5.090;2024-01-16T03:11:33;1.00;91.50
69895;DHT22;57172;52.034;5.090;2024-01-16T03:14:00;1.00;91.50
69895;DHT22;57172;52.034;5.090;2024-01-16T03:16:27;1.00;91.50
69895;DHT22;57172;52.034;5.090;2024-01-16T03:18:54;1.00;91.40
69895;DHT22;57172;52.034;5.090;2024-01-16T03:21:21;1.00;91.40
69895;DHT22;57172;52.034;5.090;2024-01-16T03:23:49;1.00;91.40
69895;DHT22;57172;52.034;5.090;2024-01-16T03:26:16;1.00;91.40
69895;DHT22;57172;52.034;5.090;2024-01-16T03:28:44;0.90;91.50
69895;DHT22;57172;52.034;5.090;2024-01-16T03:31:14;0.90;91.40
69895;DHT22;57172;52.034;5.090;2024-01-16T03:33:41;0.90;91.50
69895;DHT22;57172;52.034;5.090;2024-01-16T03:36:10;0.90;91.60
69895;DHT22;57172;52.034;5.090;2024-01-16T03:38:40;0.90;91.60
69895;DHT22;57172;52.034;5.090;2024-01-16T03:41:07;0.90;91.60
69895;DHT22;57172;52.034;5.090;2024-01-16T03:43:34;0.90;91.70
69895;DHT22;57172;52.034;5.090;2024-01-16T03:46:02;0.90;91.70
69895;DHT22;57172;52.034;5.090;2024-01-16T03:48:29;0.90;91.70
69895;DHT22;57172;52.034;5.090;2024-01-16T03:50:56;0.90;91.70
69895;DHT22;57172;52.034;5.090;2024-01-16T03:53:24;0.90;91.90
69895;DHT22;57172;52.034;5.090;2024-01-16T03:55:51;0.90;91.90
69895;DHT22;57172;52.034;5.090;2024-01-16T03:58:18;0.90;91.90
69895;DHT22;57172;52.034;5.090;2024-01-16T04:00:45;0.90;91.90
69895;DHT22;57172;52.034;5.090;2024-01-16T04:03:12;0.90;91.90
69895;DHT22;57172;52.034;5.090;2024-01-16T04:05:40;0.90;92.00
69895;DHT22;57172;52.034;5.090;2024-01-16T04:08:07;1.00;92.00
69895;DHT22;57172;52.034;5.090;2024-01-16T04:10:34;1.00;92.00
69895;DHT22;57172;52.034;5.090;2024-01-16T04:13:01;1.00;92.10
69895;DHT22;57172;52.034;5.090;2024-01-16T04:15:29;1.00;92.20
69895;DHT22;57172;52.034;5.090;2024-01-16T04:17:56;1.00;92.20
69895;DHT22;57172;52.034;5.090;2024-01-16T04:20:22;1.00;92.30
69895;DHT22;57172;52.034;5.090;2024-01-16T04:22:49;1.00;92.30
69895;DHT22;57172;52.034;5.090;2024-01-16T04:25:16;1.10;92.50
69895;DHT22;57172;52.034;5.090;2024-01-16T04:27:43;1.10;92.50
69895;DHT22;57172;52.034;5.090;2024-01-16T04:30:11;1.10;92.70
69895;DHT22;57172;52.034;5.090;2024-01-16T04:32:39;1.10;92.80
69895;DHT22;57172;52.034;5.090;2024-01-16T04:35:06;1.10;92.90
69895;DHT22;57172;52.034;5.090;2024-01-16T04:37:33;1.10;92.90
69895;DHT22;57172;52.034;5.090;2024-01-16T04:40:00;1.10;93.00
69895;DHT22;57172;52.034;5.090;2024-01-16T04:42:27;1.20;92.90
69895;DHT22;57172;52.034;5.090;2024-01-16T04:44:54;1.20;92.90
69895;DHT22;57172;52.034;5.090;2024-01-16T04:47:21;1.20;92.90
69895;DHT22;57172;52.034;5.090;2024-01-16T04:49:48;1.20;92.90
69895;DHT22;57172;52.034;5.090;2024-01-16T04:52:15;1.20;92.90
69895;DHT22;57172;52.034;5.090;2024-01-16T04:54:43;1.20;92.80
69895;DHT22;57172;52.034;5.090;2024-01-16T04:57:12;1.20;92.90
69895;DHT22;57172;52.034;5.090;2024-01-16T04:59:40;1.20;92.80
69895;DHT22;57172;52.034;5.090;2024-01-16T05:02:10;1.20;92.90
69895;DHT22;57172;52.034;5.090;2024-01-16T05:04:37;1.20;92.90
69895;DHT22;57172;52.034;5.090;2024-01-16T05:07:05;1.30;92.90
69895;DHT22;57172;52.034;5.090;2024-01-16T05:09:33;1.30;92.80
69895;DHT22;57172;52.034;5.090;2024-01-16T05:12:04;1.30;92.80
69895;DHT22;57172;52.034;5.090;2024-01-16T05:14:31;1.30;92.70
69895;DHT22;57172;52.034;5.090;2024-01-16T05:16:58;1.30;92.80
69895;DHT22;57172;52.034;5.090;2024-01-16T05:19:26;1.30;92.70
69895;DHT22;57172;52.034;5.090;2024-01-16T05:21:53;1.30;92.60
69895;DHT22;57172;52.034;5.090;2024-01-16T05:24:20;1.30;92.60
69895;DHT22;57172;52.034;5.090;2024-01-16T05:26:47;1.30;92.60
69895;DHT22;57172;52.034;5.090;2024-01-16T05:29:14;1.30;92.60
69895;DHT22;57172;52.034;5.090;2024-01-16T05:31:42;1.30;92.60
69895;DHT22;57172;52.034;5.090;2024-01-16T05:34:10;1.30;92.70
69895;DHT22;57172;52.034;5.090;2024-01-16T05:36:40;1.30;92.60
69895;DHT22;57172;52.034;5.090;2024-01-16T05:39:08;1.30;92.60
69895;DHT22;57172;52.034;5.090;2024-01-16T05:41:35;1.30;92.70
69895;DHT22;57172;52.034;5.090;2024-01-16T05:44:03;1.30;92.80
69895;DHT22;57172;52.034;5.090;2024-01-16T05:46:33;1.30;92.60
69895;DHT22;57172;52.034;5.090;2024-01-16T05:49:00;1.30;92.60
69895;DHT22;57172;52.034;5.090;2024-01-16T05:51:27;1.30;92.70
69895;DHT22;57172;52.034;5.090;2024-01-16T05:53:55;1.30;92.70
69895;DHT22;57172;52.034;5.090;2024-01-16T05:56:23;1.30;92.80
69895;DHT22;57172;52.034;5.090;2024-01-16T05:58:50;1.30;92.70
69895;DHT22;57172;52.034;5.090;2024-01-16T06:01:17;1.30;92.80
69895;DHT22;57172;52.034;5.090;2024-01-16T06:03:43;1.30;92.90
69895;DHT22;57172;52.034;5.090;2024-01-16T06:06:13;1.30;93.00
69895;DHT22;57172;52.034;5.090;2024-01-16T06:08:40;1.30;93.00
69895;DHT22;57172;52.034;5.090;2024-01-16T06:11:07;1.40;93.00
69895;DHT22;57172;52.034;5.090;2024-01-16T06:13:34;1.30;92.90
69895;DHT22;57172;52.034;5.090;2024-01-16T06:16:01;1.30;92.80
69895;DHT22;57172;52.034;5.090;2024-01-16T06:18:28;1.30;92.70
69895;DHT22;57172;52.034;5.090;2024-01-16T06:20:55;1.30;92.60
69895;DHT22;57172;52.034;5.090;2024-01-16T06:23:22;1.30;92.60
69895;DHT22;57172;52.034;5.090;2024-01-16T06:25:49;1.30;92.50
69895;DHT22;57172;52.034;5.090;2024-01-16T06:28:17;1.40;92.40
69895;DHT22;57172;52.034;5.090;2024-01-16T06:30:44;1.30;92.40
69895;DHT22;57172;52.034;5.090;2024-01-16T06:33:10;1.30;92.50
69895;DHT22;57172;52.034;5.090;2024-01-16T06:35:39;1.40;92.50
69895;DHT22;57172;52.034;5.090;2024-01-16T06:38:06;1.40;92.40
69895;DHT22;57172;52.034;5.090;2024-01-16T06:40:33;1.40;92.30
69895;DHT22;57172;52.034;5.090;2024-01-16T06:43:01;1.40;92.20
69895;DHT22;57172;52.034;5.090;2024-01-16T06:45:30;1.40;92.20
69895;DHT22;57172;52.034;5.090;2024-01-16T06:47:57;1.40;92.10
69895;DHT22;57172;52.034;5.090;2024-01-16T06:50:24;1.50;92.00
69895;DHT22;57172;52.034;5.090;2024-01-16T06:52:51;1.50;92.10
69895;DHT22;57172;52.034;5.090;2024-01-16T06:55:18;1.40;91.90
69895;DHT22;57172;52.034;5.090;2024-01-16T06:57:45;1.40;92.10
69895;DHT22;57172;52.034;5.090;2024-01-16T07:00:15;1.40;92.20
69895;DHT22;57172;52.034;5.090;2024-01-16T07:02:44;1.40;92.20
69895;DHT22;57172;52.034;5.090;2024-01-16T07:05:11;1.40;92.30
69895;DHT22;57172;52.034;5.090;2024-01-16T07:07:39;1.40;92.30
69895;DHT22;57172;52.034;5.090;2024-01-16T07:10:07;1.40;92.40
69895;DHT22;57172;52.034;5.090;2024-01-16T07:12:45;1.40;92.30
69895;DHT22;57172;52.034;5.090;2024-01-16T07:15:12;1.40;92.30
69895;DHT22;57172;52.034;5.090;2024-01-16T07:17:40;1.40;92.20
69895;DHT22;57172;52.034;5.090;2024-01-16T07:20:07;1.40;92.20
69895;DHT22;57172;52.034;5.090;2024-01-16T07:22:37;1.40;92.10
69895;DHT22;57172;52.034;5.090;2024-01-16T07:25:04;1.40;92.00
69895;DHT22;57172;52.034;5.090;2024-01-16T07:27:31;1.30;92.00
69895;DHT22;57172;52.034;5.090;2024-01-16T07:29:58;1.30;92.10
69895;DHT22;57172;52.034;5.090;2024-01-16T07:32:25;1.30;92.10
69895;DHT22;57172;52.034;5.090;2024-01-16T07:34:53;1.20;92.00
69895;DHT22;57172;52.034;5.090;2024-01-16T07:37:20;1.20;92.00
69895;DHT22;57172;52.034;5.090;2024-01-16T07:39:47;1.20;91.90
69895;DHT22;57172;52.034;5.090;2024-01-16T07:42:14;1.10;91.80
69895;DHT22;57172;52.034;5.090;2024-01-16T07:44:41;1.10;91.80
69895;DHT22;57172;52.034;5.090;2024-01-16T07:47:08;1.10;91.60
69895;DHT22;57172;52.034;5.090;2024-01-16T07:49:36;1.10;91.30
69895;DHT22;57172;52.034;5.090;2024-01-16T07:52:03;1.10;91.20
69895;DHT22;57172;52.034;5.090;2024-01-16T07:54:30;1.10;91.00
69895;DHT22;57172;52.034;5.090;2024-01-16T07:56:57;1.10;90.80
69895;DHT22;57172;52.034;5.090;2024-01-16T07:59:24;1.10;90.80
69895;DHT22;57172;52.034;5.090;2024-01-16T08:01:54;1.10;90.70
69895;DHT22;57172;52.034;5.090;2024-01-16T08:04:21;1.10;90.70
69895;DHT22;57172;52.034;5.090;2024-01-16T08:06:48;1.10;90.50
69895;DHT22;57172;52.034;5.090;2024-01-16T08:09:15;1.10;90.30
69895;DHT22;57172;52.034;5.090;2024-01-16T08:11:41;1.10;90.10
69895;DHT22;57172;52.034;5.090;2024-01-16T08:14:08;1.10;90.10
69895;DHT22;57172;52.034;5.090;2024-01-16T08:16:36;1.10;90.20
69895;DHT22;57172;52.034;5.090;2024-01-16T08:19:02;1.10;89.90
69895;DHT22;57172;52.034;5.090;2024-01-16T08:21:30;1.10;90.10
69895;DHT22;57172;52.034;5.090;2024-01-16T08:23:57;1.10;89.90
69895;DHT22;57172;52.034;5.090;2024-01-16T08:26:24;1.10;89.90
69895;DHT22;57172;52.034;5.090;2024-01-16T08:28:52;1.20;90.00
69895;DHT22;57172;52.034;5.090;2024-01-16T08:31:18;1.20;89.90
69895;DHT22;57172;52.034;5.090;2024-01-16T08:33:46;1.20;89.90
69895;DHT22;57172;52.034;5.090;2024-01-16T08:36:18;1.10;89.80
69895;DHT22;57172;52.034;5.090;2024-01-16T08:38:45;1.20;89.90
69895;DHT22;57172;52.034;5.090;2024-01-16T08:41:12;1.20;89.80
69895;DHT22;57172;52.034;5.090;2024-01-16T08:43:42;1.20;89.80
69895;DHT22;57172;52.034;5.090;2024-01-16T08:46:09;1.20;90.00
69895;DHT22;57172;52.034;5.090;2024-01-16T08:48:37;1.20;89.90
69895;DHT22;57172;52.034;5.090;2024-01-16T08:51:08;1.30;90.00
69895;DHT22;57172;52.034;5.090;2024-01-16T08:53:38;1.30;89.90
69895;DHT22;57172;52.034;5.090;2024-01-16T08:56:05;1.30;89.60
69895;DHT22;57172;52.034;5.090;2024-01-16T08:58:35;1.30;89.30
69895;DHT22;57172;52.034;5.090;2024-01-16T09:01:05;1.30;89.70
69895;DHT22;57172;52.034;5.090;2024-01-16T09:03:33;1.40;89.60
69895;DHT22;57172;52.034;5.090;2024-01-16T09:06:00;1.40;89.80
69895;DHT22;57172;52.034;5.090;2024-01-16T09:08:29;1.50;89.60
69895;DHT22;57172;52.034;5.090;2024-01-16T09:10:56;1.50;89.30
69895;DHT22;57172;52.034;5.090;2024-01-16T09:13:23;1.50;89.20
69895;DHT22;57172;52.034;5.090;2024-01-16T09:15:50;1.60;89.10
69895;DHT22;57172;52.034;5.090;2024-01-16T09:18:17;1.60;88.60
69895;DHT22;57172;52.034;5.090;2024-01-16T09:20:44;1.60;88.40
69895;DHT22;57172;52.034;5.090;2024-01-16T09:23:12;1.60;88.80
69895;DHT22;57172;52.034;5.090;2024-01-16T09:25:39;1.70;89.20
69895;DHT22;57172;52.034;5.090;2024-01-16T09:28:06;1.80;89.20
69895;DHT22;57172;52.034;5.090;2024-01-16T09:30:33;1.90;89.10
69895;DHT22;57172;52.034;5.090;2024-01-16T09:33:00;2.00;89.40
69895;DHT22;57172;52.034;5.090;2024-01-16T09:35:28;2.10;88.80
69895;DHT22;57172;52.034;5.090;2024-01-16T09:37:55;2.10;87.90
69895;DHT22;57172;52.034;5.090;2024-01-16T09:40:22;2.20;87.90
69895;DHT22;57172;52.034;5.090;2024-01-16T09:42:49;2.30;88.50
69895;DHT22;57172;52.034;5.090;2024-01-16T09:45:20;2.40;89.10
69895;DHT22;57172;52.034;5.090;2024-01-16T09:47:50;2.70;89.60
69895;DHT22;57172;52.034;5.090;2024-01-16T09:50:19;2.90;91.80
69895;DHT22;57172;52.034;5.090;2024-01-16T09:52:46;3.20;91.10
69895;DHT22;57172;52.034;5.090;2024-01-16T09:55:16;3.40;90.00
69895;DHT22;57172;52.034;5.090;2024-01-16T09:57:45;3.50;88.40
69895;DHT22;57172;52.034;5.090;2024-01-16T10:00:13;3.60;88.10
69895;DHT22;57172;52.034;5.090;2024-01-16T10:02:41;3.70;89.20
69895;DHT22;57172;52.034;5.090;2024-01-16T10:05:11;3.90;88.60
69895;DHT22;57172;52.034;5.090;2024-01-16T10:07:39;4.10;89.70
69895;DHT22;57172;52.034;5.090;2024-01-16T10:10:07;4.50;91.20
69895;DHT22;57172;52.034;5.090;2024-01-16T10:12:38;5.00;91.90
69895;DHT22;57172;52.034;5.090;2024-01-16T10:15:06;5.40;90.30
69895;DHT22;57172;52.034;5.090;2024-01-16T10:17:38;5.60;86.20
69895;DHT22;57172;52.034;5.090;2024-01-16T10:20:07;5.40;82.00
69895;DHT22;57172;52.034;5.090;2024-01-16T10:22:34;5.10;80.30
69895;DHT22;57172;52.034;5.090;2024-01-16T10:25:08;4.90;80.70
69895;DHT22;57172;52.034;5.090;2024-01-16T10:27:39;4.80;81.50
69895;DHT22;57172;52.034;5.090;2024-01-16T10:30:07;4.80;82.20
69895;DHT22;57172;52.034;5.090;2024-01-16T10:32:39;5.20;87.00
69895;DHT22;57172;52.034;5.090;2024-01-16T10:37:51;6.30;89.40
69895;DHT22;57172;52.034;5.090;2024-01-16T10:40:20;6.80;84.90
69895;DHT22;57172;52.034;5.090;2024-01-16T10:45:24;7.20;82.00
69895;DHT22;57172;52.034;5.090;2024-01-16T10:48:07;7.50;80.50
69895;DHT22;57172;52.034;5.090;2024-01-16T10:50:36;7.60;79.10
69895;DHT22;57172;52.034;5.090;2024-01-16T10:53:06;7.70;75.70
69895;DHT22;57172;52.034;5.090;2024-01-16T10:55:43;7.70;72.90
69895;DHT22;57172;52.034;5.090;2024-01-16T10:58:15;7.60;75.30
69895;DHT22;57172;52.034;5.090;2024-01-16T11:00:46;8.00;75.80
69895;DHT22;57172;52.034;5.090;2024-01-16T11:03:25;8.50;75.60
69895;DHT22;57172;52.034;5.090;2024-01-16T11:05:57;8.70;73.20
69895;DHT22;57172;52.034;5.090;2024-01-16T11:08:25;9.10;72.70
69895;DHT22;57172;52.034;5.090;2024-01-16T11:10:59;9.40;70.90
69895;DHT22;57172;52.034;5.090;2024-01-16T11:13:27;9.50;69.00
69895;DHT22;57172;52.034;5.090;2024-01-16T11:15:56;9.80;69.10
69895;DHT22;57172;52.034;5.090;2024-01-16T11:18:25;10.20;68.10
69895;DHT22;57172;52.034;5.090;2024-01-16T11:20:54;10.20;65.80
69895;DHT22;57172;52.034;5.090;2024-01-16T11:23:33;10.40;64.70
69895;DHT22;57172;52.034;5.090;2024-01-16T11:26:27;10.40;64.00
69895;DHT22;57172;52.034;5.090;2024-01-16T11:28:55;10.40;64.20
69895;DHT22;57172;52.034;5.090;2024-01-16T11:31:33;10.60;63.80
69895;DHT22;57172;52.034;5.090;2024-01-16T11:34:02;10.70;63.10
69895;DHT22;57172;52.034;5.090;2024-01-16T11:36:49;10.90;60.20
69895;DHT22;57172;52.034;5.090;2024-01-16T11:39:21;10.80;60.70
69895;DHT22;57172;52.034;5.090;2024-01-16T11:44:42;11.20;61.70
69895;DHT22;57172;52.034;5.090;2024-01-16T11:47:18;11.50;58.30
69895;DHT22;57172;52.034;5.090;2024-01-16T11:49:47;11.30;56.30
69895;DHT22;57172;52.034;5.090;2024-01-16T11:52:14;11.30;56.60
69895;DHT22;57172;52.034;5.090;2024-01-16T11:54:42;11.50;56.30
69895;DHT22;57172;52.034;5.090;2024-01-16T12:05:16;9.80;52.50
69895;DHT22;57172;52.034;5.090;2024-01-16T12:07:48;9.00;52.70
69895;DHT22;57172;52.034;5.090;2024-01-16T12:10:23;8.30;53.90
69895;DHT22;57172;52.034;5.090;2024-01-16T12:12:57;7.70;55.00
69895;DHT22;57172;52.034;5.090;2024-01-16T12:15:30;7.60;58.90
69895;DHT22;57172;52.034;5.090;2024-01-16T12:18:01;8.10;60.80
69895;DHT22;57172;52.034;5.090;2024-01-16T12:20:30;8.90;61.60
69895;DHT22;57172;52.034;5.090;2024-01-16T12:23:03;9.40;59.50
69895;DHT22;57172;52.034;5.090;2024-01-16T12:25:34;9.30;55.20
69895;DHT22;57172;52.034;5.090;2024-01-16T12:28:21;8.70;54.60
69895;DHT22;57172;52.034;5.090;2024-01-16T12:30:59;8.10;54.40
69895;DHT22;57172;52.034;5.090;2024-01-16T12:33:27;7.50;56.10
69895;DHT22;57172;52.034;5.090;2024-01-16T12:36:02;7.20;57.30
69895;DHT22;57172;52.034;5.090;2024-01-16T12:38:30;7.30;60.00
69895;DHT22;57172;52.034;5.090;2024-01-16T12:40:58;7.70;60.00
69895;DHT22;57172;52.034;5.090;2024-01-16T12:43:25;8.20;61.90
69895;DHT22;57172;52.034;5.090;2024-01-16T12:45:56;8.90;62.20
69895;DHT22;57172;52.034;5.090;2024-01-16T12:48:25;9.40;56.50
69895;DHT22;57172;52.034;5.090;2024-01-16T12:51:00;9.10;55.30
69895;DHT22;57172;52.034;5.090;2024-01-16T12:53:32;8.90;56.90
69895;DHT22;57172;52.034;5.090;2024-01-16T12:56:02;9.00;57.60
69895;DHT22;57172;52.034;5.090;2024-01-16T12:58:34;9.20;56.50
69895;DHT22;57172;52.034;5.090;2024-01-16T13:01:21;9.40;56.50
69895;DHT22;57172;52.034;5.090;2024-01-16T13:04:04;9.60;56.70
69895;DHT22;57172;52.034;5.090;2024-01-16T13:06:31;9.70;55.90
69895;DHT22;57172;52.034;5.090;2024-01-16T13:09:09;10.10;55.70
69895;DHT22;57172;52.034;5.090;2024-01-16T13:11:54;10.60;54.90
69895;DHT22;57172;52.034;5.090;2024-01-16T13:14:23;10.70;53.40
69895;DHT22;57172;52.034;5.090;2024-01-16T13:16:53;10.80;54.20
69895;DHT22;57172;52.034;5.090;2024-01-16T13:19:23;10.90;54.10
69895;DHT22;57172;52.034;5.090;2024-01-16T13:21:51;11.10;53.10
69895;DHT22;57172;52.034;5.090;2024-01-16T13:24:18;11.40;52.10
69895;DHT22;57172;52.034;5.090;2024-01-16T13:26:49;11.40;53.20
69895;DHT22;57172;52.034;5.090;2024-01-16T13:29:16;11.60;50.90
69895;DHT22;57172;52.034;5.090;2024-01-16T13:31:43;11.60;50.50
69895;DHT22;57172;52.034;5.090;2024-01-16T13:34:10;11.50;50.80
69895;DHT22;57172;52.034;5.090;2024-01-16T13:36:38;11.30;50.40
69895;DHT22;57172;52.034;5.090;2024-01-16T13:39:25;11.40;50.70
69895;DHT22;57172;52.034;5.090;2024-01-16T13:41:52;11.40;51.20
69895;DHT22;57172;52.034;5.090;2024-01-16T13:44:19;11.60;51.20
69895;DHT22;57172;52.034;5.090;2024-01-16T13:46:47;11.70;51.00
69895;DHT22;57172;52.034;5.090;2024-01-16T13:49:32;11.70;50.10
69895;DHT22;57172;52.034;5.090;2024-01-16T13:52:01;11.70;51.10
69895;DHT22;57172;52.034;5.090;2024-01-16T13:54:27;11.80;50.30
69895;DHT22;57172;52.034;5.090;2024-01-16T13:56:54;11.60;50.30
69895;DHT22;57172;52.034;5.090;2024-01-16T13:59:34;11.50;50.90
69895;DHT22;57172;52.034;5.090;2024-01-16T14:02:04;11.70;51.40
69895;DHT22;57172;52.034;5.090;2024-01-16T14:04:34;11.80;50.20
69895;DHT22;57172;52.034;5.090;2024-01-16T14:07:01;11.70;49.70
69895;DHT22;57172;52.034;5.090;2024-01-16T14:09:42;11.60;49.50
69895;DHT22;57172;52.034;5.090;2024-01-16T14:12:12;11.50;50.10
69895;DHT22;57172;52.034;5.090;2024-01-16T14:14:40;11.30;48.90
69895;DHT22;57172;52.034;5.090;2024-01-16T14:17:08;10.50;48.10
69895;DHT22;57172;52.034;5.090;2024-01-16T14:19:36;9.90;49.80
69895;DHT22;57172;52.034;5.090;2024-01-16T14:22:03;9.70;51.90
69895;DHT22;57172;52.034;5.090;2024-01-16T14:24:30;9.70;52.00
69895;DHT22;57172;52.034;5.090;2024-01-16T14:26:57;9.80;52.30
69895;DHT22;57172;52.034;5.090;2024-01-16T14:29:24;9.80;51.40
69895;DHT22;57172;52.034;5.090;2024-01-16T14:31:53;9.60;51.50
69895;DHT22;57172;52.034;5.090;2024-01-16T14:34:23;9.40;51.10
69895;DHT22;57172;52.034;5.090;2024-01-16T14:36:50;9.00;50.80
69895;DHT22;57172;52.034;5.090;2024-01-16T14:39:18;8.60;51.10
69895;DHT22;57172;52.034;5.090;2024-01-16T14:41:53;8.30;51.40
69895;DHT22;57172;52.034;5.090;2024-01-16T14:44:20;7.80;51.60
69895;DHT22;57172;52.034;5.090;2024-01-16T14:46:47;7.30;52.20
69895;DHT22;57172;52.034;5.090;2024-01-16T14:49:18;7.00;52.90
69895;DHT22;57172;52.034;5.090;2024-01-16T14:51:45;6.80;54.10
69895;DHT22;57172;52.034;5.090;2024-01-16T14:54:13;6.50;54.50
69895;DHT22;57172;52.034;5.090;2024-01-16T14:56:40;6.10;55.00
69895;DHT22;57172;52.034;5.090;2024-01-16T14:59:07;5.90;55.80
69895;DHT22;57172;52.034;5.090;2024-01-16T15:01:40;5.60;56.40
69895;DHT22;57172;52.034;5.090;2024-01-16T15:04:07;5.40;57.20
69895;DHT22;57172;52.034;5.090;2024-01-16T15:06:35;5.20;57.80
69895;DHT22;57172;52.034;5.090;2024-01-16T15:09:02;5.00;58.10
69895;DHT22;57172;52.034;5.090;2024-01-16T15:11:31;4.80;58.60
69895;DHT22;57172;52.034;5.090;2024-01-16T15:13:57;4.70;59.40
69895;DHT22;57172;52.034;5.090;2024-01-16T15:16:24;4.60;60.10
69895;DHT22;57172;52.034;5.090;2024-01-16T15:18:52;4.50;60.50
69895;DHT22;57172;52.034;5.090;2024-01-16T15:21:19;4.50;60.60
69895;DHT22;57172;52.034;5.090;2024-01-16T15:23:46;4.40;60.90
69895;DHT22;57172;52.034;5.090;2024-01-16T15:26:13;4.40;61.20
69895;DHT22;57172;52.034;5.090;2024-01-16T15:28:47;4.30;61.50
69895;DHT22;57172;52.034;5.090;2024-01-16T15:31:16;4.20;61.50
69895;DHT22;57172;52.034;5.090;2024-01-16T15:33:44;4.20;61.80
69895;DHT22;57172;52.034;5.090;2024-01-16T15:36:11;4.10;62.10
69895;DHT22;57172;52.034;5.090;2024-01-16T15:38:38;4.10;62.30
69895;DHT22;57172;52.034;5.090;2024-01-16T15:41:05;4.10;62.70
69895;DHT22;57172;52.034;5.090;2024-01-16T15:43:32;4.10;62.70
69895;DHT22;57172;52.034;5.090;2024-01-16T15:46:00;4.10;63.10
69895;DHT22;57172;52.034;5.090;2024-01-16T15:48:26;4.10;63.30
69895;DHT22;57172;52.034;5.090;2024-01-16T15:51:00;4.00;63.40
69895;DHT22;57172;52.034;5.090;2024-01-16T15:53:27;3.90;63.90
69895;DHT22;57172;52.034;5.090;2024-01-16T15:55:54;3.90;64.20
69895;DHT22;57172;52.034;5.090;2024-01-16T15:58:21;3.80;64.90
69895;DHT22;57172;52.034;5.090;2024-01-16T16:00:48;3.70;65.00
69895;DHT22;57172;52.034;5.090;2024-01-16T16:03:15;3.70;65.30
69895;DHT22;57172;52.034;5.090;2024-01-16T16:05:43;3.70;65.70
69895;DHT22;57172;52.034;5.090;2024-01-16T16:08:10;3.60;65.40
69895;DHT22;57172;52.034;5.090;2024-01-16T16:10:37;3.60;65.40